sensor_id;sensor_type;location;lat;lon;timestamp;P1;durP1;ratioP1;P2;durP2;ratioP2
51949;SDS011;37974;53.218;6.640;2023-05-07T00:00:00;30.15;;;22.10;;
51949;SDS011;37974;53.218;6.640;2023-05-07T00:02:40;34.75;;;21.65;;
51949;SDS011;37974;53.218;6.640;2023-05-07T00:09:05;32.38;;;22.27;;
51949;SDS011;37974;53.218;6.640;2023-05-07T00:12:03;29.95;;;21.95;;
51949;SDS011;37974;53.218;6.640;2023-05-07T00:15:02;33.63;;;22.45;;
51949;SDS011;37974;53.218;6.640;2023-05-07T00:17:47;34.63;;;22.85;;
51949;SDS011;37974;53.218;6.640;2023-05-07T00:23:57;34.60;;;23.33;;
51949;SDS011;37974;53.218;6.640;2023-05-07T00:32:51;38.92;;;24.00;;
51949;SDS011;37974;53.218;6.640;2023-05-07T00:35:55;33.78;;;24.33;;
51949;SDS011;37974;53.218;6.640;2023-05-07T00:39:07;33.58;;;23.73;;
51949;SDS011;37974;53.218;6.640;2023-05-07T00:52:17;35.33;;;24.73;;
51949;SDS011;37974;53.218;6.640;2023-05-07T00:54:59;32.75;;;24.02;;
51949;SDS011;37974;53.218;6.640;2023-05-07T00:58:07;38.17;;;25.40;;
51949;SDS011;37974;53.218;6.640;2023-05-07T01:01:17;32.88;;;26.17;;
51949;SDS011;37974;53.218;6.640;2023-05-07T01:04:49;37.53;;;25.88;;
51949;SDS011;37974;53.218;6.640;2023-05-07T01:11:08;37.13;;;27.73;;
51949;SDS011;37974;53.218;6.640;2023-05-07T01:13:58;38.10;;;26.38;;
51949;SDS011;37974;53.218;6.640;2023-05-07T01:20:31;37.63;;;27.63;;
51949;SDS011;37974;53.218;6.640;2023-05-07T01:23:12;36.80;;;27.80;;
51949;SDS011;37974;53.218;6.640;2023-05-07T01:29:26;36.60;;;26.42;;
51949;SDS011;37974;53.218;6.640;2023-05-07T01:35:45;35.20;;;25.48;;
51949;SDS011;37974;53.218;6.640;2023-05-07T01:38:36;37.55;;;26.40;;
51949;SDS011;37974;53.218;6.640;2023-05-07T01:41:44;32.90;;;25.08;;
51949;SDS011;37974;53.218;6.640;2023-05-07T01:44:35;36.20;;;25.75;;
51949;SDS011;37974;53.218;6.640;2023-05-07T01:47:37;39.95;;;26.83;;
51949;SDS011;37974;53.218;6.640;2023-05-07T01:54:02;40.17;;;27.80;;
51949;SDS011;37974;53.218;6.640;2023-05-07T01:56:58;38.70;;;27.42;;
51949;SDS011;37974;53.218;6.640;2023-05-07T02:12:59;40.70;;;27.15;;
51949;SDS011;37974;53.218;6.640;2023-05-07T02:16:03;36.15;;;26.55;;
51949;SDS011;37974;53.218;6.640;2023-05-07T02:19:01;40.17;;;27.58;;
51949;SDS011;37974;53.218;6.640;2023-05-07T02:22:05;37.47;;;26.90;;
51949;SDS011;37974;53.218;6.640;2023-05-07T02:24:53;38.90;;;28.52;;
51949;SDS011;37974;53.218;6.640;2023-05-07T02:28:45;45.22;;;29.05;;
51949;SDS011;37974;53.218;6.640;2023-05-07T02:31:36;52.05;;;32.60;;
51949;SDS011;37974;53.218;6.640;2023-05-07T02:52:17;44.33;;;32.45;;
51949;SDS011;37974;53.218;6.640;2023-05-07T02:56:01;42.97;;;31.77;;
51949;SDS011;37974;53.218;6.640;2023-05-07T02:59:06;43.40;;;30.10;;
51949;SDS011;37974;53.218;6.640;2023-05-07T03:01:56;39.47;;;28.70;;
51949;SDS011;37974;53.218;6.640;2023-05-07T03:05:07;43.13;;;30.40;;
51949;SDS011;37974;53.218;6.640;2023-05-07T03:08:41;38.17;;;28.20;;
51949;SDS011;37974;53.218;6.640;2023-05-07T03:11:39;41.63;;;28.65;;
51949;SDS011;37974;53.218;6.640;2023-05-07T03:17:56;43.05;;;29.17;;
51949;SDS011;37974;53.218;6.640;2023-05-07T03:21:03;44.47;;;30.83;;
51949;SDS011;37974;53.218;6.640;2023-05-07T03:24:11;43.20;;;30.10;;
51949;SDS011;37974;53.218;6.640;2023-05-07T03:27:21;39.97;;;29.20;;
51949;SDS011;37974;53.218;6.640;2023-05-07T03:30:19;45.65;;;31.17;;
51949;SDS011;37974;53.218;6.640;2023-05-07T03:33:05;38.88;;;28.08;;
51949;SDS011;37974;53.218;6.640;2023-05-07T03:36:02;41.30;;;28.38;;
51949;SDS011;37974;53.218;6.640;2023-05-07T03:38:51;38.60;;;28.42;;
51949;SDS011;37974;53.218;6.640;2023-05-07T03:42:04;46.60;;;29.23;;
51949;SDS011;37974;53.218;6.640;2023-05-07T03:45:06;44.10;;;29.65;;
51949;SDS011;37974;53.218;6.640;2023-05-07T03:48:04;39.47;;;29.98;;
51949;SDS011;37974;53.218;6.640;2023-05-07T03:53:24;38.17;;;28.50;;
51949;SDS011;37974;53.218;6.640;2023-05-07T03:56:39;44.72;;;29.73;;
51949;SDS011;37974;53.218;6.640;2023-05-07T04:06:31;45.45;;;31.27;;
51949;SDS011;37974;53.218;6.640;2023-05-07T04:10:13;50.25;;;32.42;;
51949;SDS011;37974;53.218;6.640;2023-05-07T04:12:40;42.67;;;29.85;;
51949;SDS011;37974;53.218;6.640;2023-05-07T04:15:42;44.33;;;30.05;;
51949;SDS011;37974;53.218;6.640;2023-05-07T04:18:36;45.30;;;29.58;;
51949;SDS011;37974;53.218;6.640;2023-05-07T04:21:44;45.83;;;31.25;;
51949;SDS011;37974;53.218;6.640;2023-05-07T04:24:56;44.88;;;29.73;;
51949;SDS011;37974;53.218;6.640;2023-05-07T04:28:07;38.55;;;27.33;;
51949;SDS011;37974;53.218;6.640;2023-05-07T04:30:57;41.00;;;29.65;;
51949;SDS011;37974;53.218;6.640;2023-05-07T04:34:08;38.28;;;28.38;;
51949;SDS011;37974;53.218;6.640;2023-05-07T04:37:19;36.92;;;26.58;;
51949;SDS011;37974;53.218;6.640;2023-05-07T04:40:29;35.50;;;26.00;;
51949;SDS011;37974;53.218;6.640;2023-05-07T04:43:41;35.92;;;26.17;;
51949;SDS011;37974;53.218;6.640;2023-05-07T04:47:19;32.88;;;25.25;;
51949;SDS011;37974;53.218;6.640;2023-05-07T04:50:21;34.60;;;26.27;;
51949;SDS011;37974;53.218;6.640;2023-05-07T04:57:10;32.17;;;25.17;;
51949;SDS011;37974;53.218;6.640;2023-05-07T05:00:16;33.53;;;24.83;;
51949;SDS011;37974;53.218;6.640;2023-05-07T05:03:38;32.85;;;24.65;;
51949;SDS011;37974;53.218;6.640;2023-05-07T05:06:50;34.05;;;24.60;;
51949;SDS011;37974;53.218;6.640;2023-05-07T05:09:49;34.17;;;25.90;;
51949;SDS011;37974;53.218;6.640;2023-05-07T05:13:30;31.80;;;24.20;;
51949;SDS011;37974;53.218;6.640;2023-05-07T05:16:39;31.17;;;24.58;;
51949;SDS011;37974;53.218;6.640;2023-05-07T05:19:41;34.15;;;25.42;;
51949;SDS011;37974;53.218;6.640;2023-05-07T05:22:53;35.25;;;25.13;;
51949;SDS011;37974;53.218;6.640;2023-05-07T05:26:30;32.45;;;24.25;;
51949;SDS011;37974;53.218;6.640;2023-05-07T05:29:46;33.35;;;24.83;;
51949;SDS011;37974;53.218;6.640;2023-05-07T05:32:49;33.38;;;23.42;;
51949;SDS011;37974;53.218;6.640;2023-05-07T05:35:46;31.67;;;23.52;;
51949;SDS011;37974;53.218;6.640;2023-05-07T05:41:39;32.42;;;23.92;;
51949;SDS011;37974;53.218;6.640;2023-05-07T05:44:07;33.33;;;23.92;;
51949;SDS011;37974;53.218;6.640;2023-05-07T05:47:17;33.00;;;23.63;;
51949;SDS011;37974;53.218;6.640;2023-05-07T05:50:20;29.23;;;23.48;;
51949;SDS011;37974;53.218;6.640;2023-05-07T05:52:48;31.27;;;22.50;;
51949;SDS011;37974;53.218;6.640;2023-05-07T05:55:14;29.23;;;22.92;;
51949;SDS011;37974;53.218;6.640;2023-05-07T05:57:42;29.15;;;22.52;;
51949;SDS011;37974;53.218;6.640;2023-05-07T06:03:46;29.27;;;22.95;;
51949;SDS011;37974;53.218;6.640;2023-05-07T06:06:11;28.88;;;22.02;;
51949;SDS011;37974;53.218;6.640;2023-05-07T06:08:37;32.75;;;23.60;;
51949;SDS011;37974;53.218;6.640;2023-05-07T06:11:08;28.67;;;23.10;;
51949;SDS011;37974;53.218;6.640;2023-05-07T06:13:57;28.77;;;22.50;;
51949;SDS011;37974;53.218;6.640;2023-05-07T06:16:24;28.95;;;22.90;;
51949;SDS011;37974;53.218;6.640;2023-05-07T06:20:02;30.40;;;24.30;;
51949;SDS011;37974;53.218;6.640;2023-05-07T06:22:30;28.80;;;25.60;;
51949;SDS011;37974;53.218;6.640;2023-05-07T06:24:59;34.10;;;28.27;;
51949;SDS011;37974;53.218;6.640;2023-05-07T06:27:47;33.35;;;28.15;;
51949;SDS011;37974;53.218;6.640;2023-05-07T06:30:13;36.35;;;29.35;;
51949;SDS011;37974;53.218;6.640;2023-05-07T06:33:02;36.08;;;28.27;;
51949;SDS011;37974;53.218;6.640;2023-05-07T06:35:28;37.83;;;30.15;;
51949;SDS011;37974;53.218;6.640;2023-05-07T06:37:53;37.97;;;28.50;;
51949;SDS011;37974;53.218;6.640;2023-05-07T06:40:19;34.28;;;28.25;;
51949;SDS011;37974;53.218;6.640;2023-05-07T06:42:45;31.58;;;25.88;;
51949;SDS011;37974;53.218;6.640;2023-05-07T06:45:22;29.15;;;23.60;;
51949;SDS011;37974;53.218;6.640;2023-05-07T06:48:04;31.65;;;24.25;;
51949;SDS011;37974;53.218;6.640;2023-05-07T06:50:30;32.60;;;21.92;;
51949;SDS011;37974;53.218;6.640;2023-05-07T06:52:58;28.75;;;22.80;;
51949;SDS011;37974;53.218;6.640;2023-05-07T06:55:24;28.75;;;22.10;;
51949;SDS011;37974;53.218;6.640;2023-05-07T06:57:50;29.85;;;21.85;;
51949;SDS011;37974;53.218;6.640;2023-05-07T07:00:18;29.13;;;21.13;;
51949;SDS011;37974;53.218;6.640;2023-05-07T07:02:47;28.60;;;21.23;;
51949;SDS011;37974;53.218;6.640;2023-05-07T07:05:13;25.35;;;19.58;;
51949;SDS011;37974;53.218;6.640;2023-05-07T07:07:38;27.30;;;20.15;;
51949;SDS011;37974;53.218;6.640;2023-05-07T07:10:04;26.35;;;19.75;;
51949;SDS011;37974;53.218;6.640;2023-05-07T07:12:30;28.38;;;20.83;;
51949;SDS011;37974;53.218;6.640;2023-05-07T07:14:56;27.10;;;20.27;;
51949;SDS011;37974;53.218;6.640;2023-05-07T07:17:22;26.42;;;21.27;;
51949;SDS011;37974;53.218;6.640;2023-05-07T07:19:48;28.30;;;19.98;;
51949;SDS011;37974;53.218;6.640;2023-05-07T07:22:13;27.58;;;21.50;;
51949;SDS011;37974;53.218;6.640;2023-05-07T07:24:39;27.45;;;20.55;;
51949;SDS011;37974;53.218;6.640;2023-05-07T07:27:05;28.48;;;21.52;;
51949;SDS011;37974;53.218;6.640;2023-05-07T07:29:31;29.52;;;21.10;;
51949;SDS011;37974;53.218;6.640;2023-05-07T07:31:56;29.60;;;21.27;;
51949;SDS011;37974;53.218;6.640;2023-05-07T07:34:22;26.60;;;20.65;;
51949;SDS011;37974;53.218;6.640;2023-05-07T07:36:48;31.38;;;21.33;;
51949;SDS011;37974;53.218;6.640;2023-05-07T07:39:14;28.73;;;21.55;;
51949;SDS011;37974;53.218;6.640;2023-05-07T07:41:40;27.08;;;21.20;;
51949;SDS011;37974;53.218;6.640;2023-05-07T07:44:06;29.50;;;22.20;;
51949;SDS011;37974;53.218;6.640;2023-05-07T07:46:32;28.85;;;21.83;;
51949;SDS011;37974;53.218;6.640;2023-05-07T07:48:58;28.60;;;20.63;;
51949;SDS011;37974;53.218;6.640;2023-05-07T07:51:32;27.23;;;21.08;;
51949;SDS011;37974;53.218;6.640;2023-05-07T07:53:58;29.40;;;21.67;;
51949;SDS011;37974;53.218;6.640;2023-05-07T07:56:24;30.88;;;21.73;;
51949;SDS011;37974;53.218;6.640;2023-05-07T07:58:50;29.42;;;21.65;;
51949;SDS011;37974;53.218;6.640;2023-05-07T08:03:58;31.83;;;21.40;;
51949;SDS011;37974;53.218;6.640;2023-05-07T08:06:26;28.83;;;21.88;;
51949;SDS011;37974;53.218;6.640;2023-05-07T08:08:59;27.23;;;21.17;;
51949;SDS011;37974;53.218;6.640;2023-05-07T08:11:31;28.55;;;20.70;;
51949;SDS011;37974;53.218;6.640;2023-05-07T08:13:57;28.33;;;21.25;;
51949;SDS011;37974;53.218;6.640;2023-05-07T08:16:23;31.15;;;22.15;;
51949;SDS011;37974;53.218;6.640;2023-05-07T08:18:49;31.73;;;21.38;;
51949;SDS011;37974;53.218;6.640;2023-05-07T08:21:15;29.85;;;20.63;;
51949;SDS011;37974;53.218;6.640;2023-05-07T08:23:53;26.00;;;20.73;;
51949;SDS011;37974;53.218;6.640;2023-05-07T08:26:19;25.77;;;20.25;;
51949;SDS011;37974;53.218;6.640;2023-05-07T08:28:45;28.58;;;20.88;;
51949;SDS011;37974;53.218;6.640;2023-05-07T08:31:11;24.80;;;19.52;;
51949;SDS011;37974;53.218;6.640;2023-05-07T08:33:50;26.88;;;20.38;;
51949;SDS011;37974;53.218;6.640;2023-05-07T08:36:29;27.60;;;21.23;;
51949;SDS011;37974;53.218;6.640;2023-05-07T08:44:59;25.20;;;19.80;;
51949;SDS011;37974;53.218;6.640;2023-05-07T08:47:29;27.05;;;20.13;;
51949;SDS011;37974;53.218;6.640;2023-05-07T08:52:45;23.85;;;19.92;;
51949;SDS011;37974;53.218;6.640;2023-05-07T08:55:21;28.30;;;20.35;;
51949;SDS011;37974;53.218;6.640;2023-05-07T08:57:48;25.55;;;18.92;;
51949;SDS011;37974;53.218;6.640;2023-05-07T09:00:14;25.08;;;19.90;;
51949;SDS011;37974;53.218;6.640;2023-05-07T09:02:40;27.00;;;20.95;;
51949;SDS011;37974;53.218;6.640;2023-05-07T09:05:06;28.27;;;21.00;;
51949;SDS011;37974;53.218;6.640;2023-05-07T09:08:33;28.55;;;21.63;;
51949;SDS011;37974;53.218;6.640;2023-05-07T09:11:28;24.52;;;19.95;;
51949;SDS011;37974;53.218;6.640;2023-05-07T09:14:27;25.38;;;19.45;;
51949;SDS011;37974;53.218;6.640;2023-05-07T09:20:48;29.30;;;20.33;;
51949;SDS011;37974;53.218;6.640;2023-05-07T09:28:39;26.75;;;20.60;;
51949;SDS011;37974;53.218;6.640;2023-05-07T09:31:26;28.42;;;19.83;;
51949;SDS011;37974;53.218;6.640;2023-05-07T09:33:52;25.63;;;19.42;;
51949;SDS011;37974;53.218;6.640;2023-05-07T09:36:54;28.42;;;19.13;;
51949;SDS011;37974;53.218;6.640;2023-05-07T09:39:21;22.70;;;18.60;;
51949;SDS011;37974;53.218;6.640;2023-05-07T09:41:48;23.50;;;17.88;;
51949;SDS011;37974;53.218;6.640;2023-05-07T09:44:25;27.50;;;19.35;;
51949;SDS011;37974;53.218;6.640;2023-05-07T09:46:53;27.05;;;18.85;;
51949;SDS011;37974;53.218;6.640;2023-05-07T09:49:48;25.25;;;18.25;;
51949;SDS011;37974;53.218;6.640;2023-05-07T09:52:17;24.45;;;18.33;;
51949;SDS011;37974;53.218;6.640;2023-05-07T09:55:07;24.55;;;18.17;;
51949;SDS011;37974;53.218;6.640;2023-05-07T09:58:12;21.88;;;17.80;;
51949;SDS011;37974;53.218;6.640;2023-05-07T10:01:06;21.35;;;17.65;;
51949;SDS011;37974;53.218;6.640;2023-05-07T10:03:33;22.10;;;17.55;;
51949;SDS011;37974;53.218;6.640;2023-05-07T10:06:01;20.40;;;16.38;;
51949;SDS011;37974;53.218;6.640;2023-05-07T10:08:28;22.92;;;17.17;;
51949;SDS011;37974;53.218;6.640;2023-05-07T10:10:55;21.25;;;17.75;;
51949;SDS011;37974;53.218;6.640;2023-05-07T10:13:21;19.38;;;16.90;;
51949;SDS011;37974;53.218;6.640;2023-05-07T10:15:47;27.48;;;19.42;;
51949;SDS011;37974;53.218;6.640;2023-05-07T10:18:14;22.27;;;17.67;;
51949;SDS011;37974;53.218;6.640;2023-05-07T10:20:44;19.58;;;15.68;;
51949;SDS011;37974;53.218;6.640;2023-05-07T10:23:14;21.63;;;16.20;;
51949;SDS011;37974;53.218;6.640;2023-05-07T10:26:09;18.73;;;15.60;;
51949;SDS011;37974;53.218;6.640;2023-05-07T10:28:37;22.30;;;16.05;;
51949;SDS011;37974;53.218;6.640;2023-05-07T10:44:11;19.30;;;15.25;;
51949;SDS011;37974;53.218;6.640;2023-05-07T10:51:33;19.92;;;16.17;;
51949;SDS011;37974;53.218;6.640;2023-05-07T11:13:57;17.17;;;14.18;;
51949;SDS011;37974;53.218;6.640;2023-05-07T11:42:35;15.02;;;11.65;;
51949;SDS011;37974;53.218;6.640;2023-05-07T11:53:13;14.50;;;12.05;;
51949;SDS011;37974;53.218;6.640;2023-05-07T11:56:08;15.73;;;11.45;;
51949;SDS011;37974;53.218;6.640;2023-05-07T11:58:56;13.65;;;11.13;;
51949;SDS011;37974;53.218;6.640;2023-05-07T12:02:02;12.85;;;11.27;;
51949;SDS011;37974;53.218;6.640;2023-05-07T12:05:23;16.23;;;11.65;;
51949;SDS011;37974;53.218;6.640;2023-05-07T12:08:23;15.10;;;10.63;;
51949;SDS011;37974;53.218;6.640;2023-05-07T12:11:25;12.20;;;10.65;;
51949;SDS011;37974;53.218;6.640;2023-05-07T12:14:10;13.23;;;10.82;;
51949;SDS011;37974;53.218;6.640;2023-05-07T12:16:36;13.00;;;11.07;;
51949;SDS011;37974;53.218;6.640;2023-05-07T12:19:04;12.15;;;10.77;;
51949;SDS011;37974;53.218;6.640;2023-05-07T12:21:33;13.80;;;10.15;;
51949;SDS011;37974;53.218;6.640;2023-05-07T12:24:15;15.63;;;11.07;;
51949;SDS011;37974;53.218;6.640;2023-05-07T12:26:44;15.00;;;10.20;;
51949;SDS011;37974;53.218;6.640;2023-05-07T12:29:27;13.82;;;10.38;;
51949;SDS011;37974;53.218;6.640;2023-05-07T12:32:20;12.45;;;10.55;;
51949;SDS011;37974;53.218;6.640;2023-05-07T12:34:49;14.18;;;10.95;;
51949;SDS011;37974;53.218;6.640;2023-05-07T12:37:22;12.40;;;9.70;;
51949;SDS011;37974;53.218;6.640;2023-05-07T12:43:39;12.30;;;11.00;;
51949;SDS011;37974;53.218;6.640;2023-05-07T12:46:32;13.27;;;10.80;;
51949;SDS011;37974;53.218;6.640;2023-05-07T12:49:06;14.00;;;10.55;;
51949;SDS011;37974;53.218;6.640;2023-05-07T12:52:47;12.30;;;10.98;;
51949;SDS011;37974;53.218;6.640;2023-05-07T12:58:48;12.25;;;10.77;;
51949;SDS011;37974;53.218;6.640;2023-05-07T13:02:01;12.95;;;11.05;;
51949;SDS011;37974;53.218;6.640;2023-05-07T13:08:35;13.20;;;11.43;;
51949;SDS011;37974;53.218;6.640;2023-05-07T13:15:19;13.73;;;11.50;;
51949;SDS011;37974;53.218;6.640;2023-05-07T13:18:39;12.30;;;11.00;;
51949;SDS011;37974;53.218;6.640;2023-05-07T13:31:56;12.23;;;10.82;;
51949;SDS011;37974;53.218;6.640;2023-05-07T13:35:23;13.02;;;11.00;;
51949;SDS011;37974;53.218;6.640;2023-05-07T13:41:44;11.63;;;10.27;;
51949;SDS011;37974;53.218;6.640;2023-05-07T14:00:16;11.20;;;9.98;;
51949;SDS011;37974;53.218;6.640;2023-05-07T14:02:48;11.73;;;10.13;;
51949;SDS011;37974;53.218;6.640;2023-05-07T14:13:41;11.90;;;9.40;;
51949;SDS011;37974;53.218;6.640;2023-05-07T14:17:21;11.05;;;9.43;;
51949;SDS011;37974;53.218;6.640;2023-05-07T14:28:32;8.45;;;7.53;;
51949;SDS011;37974;53.218;6.640;2023-05-07T14:47:31;10.55;;;8.63;;
51949;SDS011;37974;53.218;6.640;2023-05-07T14:53:37;10.55;;;8.43;;
51949;SDS011;37974;53.218;6.640;2023-05-07T14:57:09;11.52;;;8.40;;
51949;SDS011;37974;53.218;6.640;2023-05-07T14:59:38;11.95;;;8.60;;
51949;SDS011;37974;53.218;6.640;2023-05-07T15:02:36;13.65;;;8.55;;
51949;SDS011;37974;53.218;6.640;2023-05-07T15:05:04;11.48;;;8.75;;
51949;SDS011;37974;53.218;6.640;2023-05-07T15:07:31;9.75;;;8.30;;
51949;SDS011;37974;53.218;6.640;2023-05-07T15:10:02;8.82;;;7.93;;
51949;SDS011;37974;53.218;6.640;2023-05-07T15:13:33;11.82;;;8.40;;
51949;SDS011;37974;53.218;6.640;2023-05-07T15:16:51;9.95;;;8.95;;
51949;SDS011;37974;53.218;6.640;2023-05-07T15:27:07;12.13;;;8.73;;
51949;SDS011;37974;53.218;6.640;2023-05-07T15:49:34;10.85;;;8.90;;
51949;SDS011;37974;53.218;6.640;2023-05-07T15:52:06;10.02;;;8.75;;
51949;SDS011;37974;53.218;6.640;2023-05-07T15:54:56;9.57;;;8.55;;
51949;SDS011;37974;53.218;6.640;2023-05-07T16:09:56;10.75;;;9.50;;
51949;SDS011;37974;53.218;6.640;2023-05-07T16:15:46;14.15;;;9.18;;
51949;SDS011;37974;53.218;6.640;2023-05-07T16:18:12;12.05;;;9.27;;
51949;SDS011;37974;53.218;6.640;2023-05-07T16:20:56;11.30;;;8.35;;
51949;SDS011;37974;53.218;6.640;2023-05-07T16:23:25;10.35;;;8.55;;
51949;SDS011;37974;53.218;6.640;2023-05-07T16:26:16;10.55;;;8.15;;
51949;SDS011;37974;53.218;6.640;2023-05-07T16:28:42;9.63;;;8.55;;
51949;SDS011;37974;53.218;6.640;2023-05-07T16:31:08;9.80;;;8.40;;
51949;SDS011;37974;53.218;6.640;2023-05-07T16:33:34;12.10;;;8.50;;
51949;SDS011;37974;53.218;6.640;2023-05-07T16:36:00;12.18;;;8.55;;
51949;SDS011;37974;53.218;6.640;2023-05-07T16:38:39;9.57;;;8.57;;
51949;SDS011;37974;53.218;6.640;2023-05-07T16:41:04;9.38;;;8.32;;
51949;SDS011;37974;53.218;6.640;2023-05-07T16:43:30;10.32;;;8.05;;
51949;SDS011;37974;53.218;6.640;2023-05-07T16:45:56;10.02;;;8.75;;
51949;SDS011;37974;53.218;6.640;2023-05-07T16:48:22;9.98;;;8.20;;
51949;SDS011;37974;53.218;6.640;2023-05-07T16:50:48;12.68;;;8.88;;
51949;SDS011;37974;53.218;6.640;2023-05-07T16:53:31;10.35;;;8.98;;
51949;SDS011;37974;53.218;6.640;2023-05-07T16:55:57;9.88;;;8.77;;
51949;SDS011;37974;53.218;6.640;2023-05-07T16:58:23;11.32;;;8.40;;
51949;SDS011;37974;53.218;6.640;2023-05-07T17:00:49;11.27;;;9.15;;
51949;SDS011;37974;53.218;6.640;2023-05-07T17:03:18;12.10;;;8.40;;
51949;SDS011;37974;53.218;6.640;2023-05-07T17:05:46;10.65;;;9.25;;
51949;SDS011;37974;53.218;6.640;2023-05-07T17:08:12;11.15;;;8.60;;
51949;SDS011;37974;53.218;6.640;2023-05-07T17:10:38;14.57;;;9.15;;
51949;SDS011;37974;53.218;6.640;2023-05-07T17:13:03;12.55;;;9.20;;
51949;SDS011;37974;53.218;6.640;2023-05-07T17:15:30;11.93;;;8.90;;
51949;SDS011;37974;53.218;6.640;2023-05-07T17:17:55;13.32;;;9.07;;
51949;SDS011;37974;53.218;6.640;2023-05-07T17:20:21;10.15;;;7.97;;
51949;SDS011;37974;53.218;6.640;2023-05-07T17:22:47;10.40;;;7.97;;
51949;SDS011;37974;53.218;6.640;2023-05-07T17:25:13;10.10;;;8.73;;
51949;SDS011;37974;53.218;6.640;2023-05-07T17:27:39;8.98;;;7.90;;
51949;SDS011;37974;53.218;6.640;2023-05-07T17:30:05;12.70;;;8.07;;
51949;SDS011;37974;53.218;6.640;2023-05-07T17:32:34;11.63;;;8.57;;
51949;SDS011;37974;53.218;6.640;2023-05-07T17:35:00;11.07;;;8.13;;
51949;SDS011;37974;53.218;6.640;2023-05-07T17:37:25;10.10;;;8.50;;
51949;SDS011;37974;53.218;6.640;2023-05-07T17:39:52;10.38;;;8.20;;
51949;SDS011;37974;53.218;6.640;2023-05-07T17:42:18;12.38;;;8.57;;
51949;SDS011;37974;53.218;6.640;2023-05-07T17:44:43;10.13;;;8.38;;
51949;SDS011;37974;53.218;6.640;2023-05-07T17:47:09;20.98;;;9.32;;
51949;SDS011;37974;53.218;6.640;2023-05-07T17:49:38;10.35;;;8.80;;
51949;SDS011;37974;53.218;6.640;2023-05-07T17:52:04;9.43;;;8.40;;
51949;SDS011;37974;53.218;6.640;2023-05-07T17:54:30;10.40;;;8.23;;
51949;SDS011;37974;53.218;6.640;2023-05-07T17:56:55;9.70;;;8.68;;
51949;SDS011;37974;53.218;6.640;2023-05-07T17:59:21;9.55;;;7.93;;
51949;SDS011;37974;53.218;6.640;2023-05-07T18:01:47;10.90;;;8.50;;
51949;SDS011;37974;53.218;6.640;2023-05-07T18:04:13;11.32;;;8.05;;
51949;SDS011;37974;53.218;6.640;2023-05-07T18:06:38;10.25;;;8.50;;
51949;SDS011;37974;53.218;6.640;2023-05-07T18:09:11;11.50;;;9.05;;
51949;SDS011;37974;53.218;6.640;2023-05-07T18:11:37;10.13;;;8.88;;
51949;SDS011;37974;53.218;6.640;2023-05-07T18:14:03;10.43;;;8.80;;
51949;SDS011;37974;53.218;6.640;2023-05-07T18:16:29;11.80;;;9.10;;
51949;SDS011;37974;53.218;6.640;2023-05-07T18:18:55;11.43;;;8.90;;
51949;SDS011;37974;53.218;6.640;2023-05-07T18:21:20;11.95;;;8.65;;
51949;SDS011;37974;53.218;6.640;2023-05-07T18:23:47;11.85;;;9.35;;
51949;SDS011;37974;53.218;6.640;2023-05-07T18:26:16;12.65;;;9.65;;
51949;SDS011;37974;53.218;6.640;2023-05-07T18:29:30;10.18;;;9.07;;
51949;SDS011;37974;53.218;6.640;2023-05-07T18:32:11;10.60;;;9.00;;
51949;SDS011;37974;53.218;6.640;2023-05-07T18:34:58;13.55;;;9.38;;
51949;SDS011;37974;53.218;6.640;2023-05-07T18:38:00;12.13;;;10.10;;
51949;SDS011;37974;53.218;6.640;2023-05-07T18:40:59;12.02;;;10.02;;
51949;SDS011;37974;53.218;6.640;2023-05-07T18:43:55;11.35;;;10.15;;
51949;SDS011;37974;53.218;6.640;2023-05-07T18:46:46;15.13;;;10.27;;
51949;SDS011;37974;53.218;6.640;2023-05-07T18:49:38;11.75;;;9.32;;
51949;SDS011;37974;53.218;6.640;2023-05-07T18:52:04;12.00;;;10.10;;
51949;SDS011;37974;53.218;6.640;2023-05-07T18:54:32;12.18;;;10.32;;
51949;SDS011;37974;53.218;6.640;2023-05-07T18:57:33;14.65;;;10.98;;
51949;SDS011;37974;53.218;6.640;2023-05-07T19:00:38;11.35;;;10.18;;
51949;SDS011;37974;53.218;6.640;2023-05-07T19:03:26;11.55;;;10.35;;
51949;SDS011;37974;53.218;6.640;2023-05-07T19:06:08;15.52;;;11.02;;
51949;SDS011;37974;53.218;6.640;2023-05-07T19:09:20;12.20;;;11.00;;
51949;SDS011;37974;53.218;6.640;2023-05-07T19:11:55;11.50;;;10.25;;
51949;SDS011;37974;53.218;6.640;2023-05-07T19:19:17;12.88;;;10.50;;
51949;SDS011;37974;53.218;6.640;2023-05-07T19:25:24;11.63;;;10.43;;
51949;SDS011;37974;53.218;6.640;2023-05-07T19:28:13;12.77;;;9.90;;
51949;SDS011;37974;53.218;6.640;2023-05-07T19:30:45;11.52;;;10.15;;
51949;SDS011;37974;53.218;6.640;2023-05-07T19:33:24;11.30;;;10.07;;
51949;SDS011;37974;53.218;6.640;2023-05-07T19:54:00;11.35;;;10.15;;
51949;SDS011;37974;53.218;6.640;2023-05-07T19:57:02;12.90;;;10.70;;
51949;SDS011;37974;53.218;6.640;2023-05-07T19:59:55;11.23;;;9.95;;
51949;SDS011;37974;53.218;6.640;2023-05-07T20:02:24;10.88;;;9.77;;
51949;SDS011;37974;53.218;6.640;2023-05-07T20:04:51;10.93;;;9.52;;
51949;SDS011;37974;53.218;6.640;2023-05-07T20:07:22;11.75;;;10.18;;
51949;SDS011;37974;53.218;6.640;2023-05-07T20:09:53;10.77;;;9.68;;
51949;SDS011;37974;53.218;6.640;2023-05-07T20:12:20;13.63;;;9.68;;
51949;SDS011;37974;53.218;6.640;2023-05-07T20:14:46;11.30;;;9.90;;
51949;SDS011;37974;53.218;6.640;2023-05-07T20:17:14;15.10;;;10.02;;
51949;SDS011;37974;53.218;6.640;2023-05-07T20:19:40;12.80;;;9.90;;
51949;SDS011;37974;53.218;6.640;2023-05-07T20:22:08;12.70;;;10.45;;
51949;SDS011;37974;53.218;6.640;2023-05-07T20:24:35;12.82;;;9.95;;
51949;SDS011;37974;53.218;6.640;2023-05-07T20:27:04;13.85;;;10.95;;
51949;SDS011;37974;53.218;6.640;2023-05-07T20:29:31;10.88;;;9.77;;
51949;SDS011;37974;53.218;6.640;2023-05-07T20:31:57;13.57;;;9.90;;
51949;SDS011;37974;53.218;6.640;2023-05-07T20:34:23;10.93;;;9.73;;
51949;SDS011;37974;53.218;6.640;2023-05-07T20:36:49;10.45;;;9.27;;
51949;SDS011;37974;53.218;6.640;2023-05-07T20:39:15;10.95;;;9.85;;
51949;SDS011;37974;53.218;6.640;2023-05-07T20:41:41;13.02;;;10.20;;
51949;SDS011;37974;53.218;6.640;2023-05-07T20:44:08;10.40;;;9.30;;
51949;SDS011;37974;53.218;6.640;2023-05-07T20:46:37;11.23;;;9.65;;
51949;SDS011;37974;53.218;6.640;2023-05-07T20:49:03;10.65;;;9.55;;
51949;SDS011;37974;53.218;6.640;2023-05-07T20:51:29;12.82;;;9.57;;
51949;SDS011;37974;53.218;6.640;2023-05-07T20:53:55;13.23;;;9.95;;
51949;SDS011;37974;53.218;6.640;2023-05-07T20:56:21;12.13;;;9.00;;
51949;SDS011;37974;53.218;6.640;2023-05-07T20:58:47;12.20;;;9.68;;
51949;SDS011;37974;53.218;6.640;2023-05-07T21:01:13;10.98;;;9.18;;
51949;SDS011;37974;53.218;6.640;2023-05-07T21:03:39;10.25;;;9.10;;
51949;SDS011;37974;53.218;6.640;2023-05-07T21:06:05;12.73;;;9.05;;
51949;SDS011;37974;53.218;6.640;2023-05-07T21:08:31;10.88;;;9.07;;
51949;SDS011;37974;53.218;6.640;2023-05-07T21:10:56;11.57;;;9.05;;
51949;SDS011;37974;53.218;6.640;2023-05-07T21:13:23;14.40;;;8.82;;
51949;SDS011;37974;53.218;6.640;2023-05-07T21:15:49;9.85;;;8.35;;
51949;SDS011;37974;53.218;6.640;2023-05-07T21:18:15;9.35;;;8.35;;
51949;SDS011;37974;53.218;6.640;2023-05-07T21:20:41;10.73;;;8.45;;
51949;SDS011;37974;53.218;6.640;2023-05-07T21:23:07;9.50;;;8.20;;
51949;SDS011;37974;53.218;6.640;2023-05-07T21:25:35;11.88;;;8.18;;
51949;SDS011;37974;53.218;6.640;2023-05-07T21:30:42;9.57;;;8.05;;